Time;durP1;ratioP1;P1;durP2;ratioP2;P2;SDS_P1;SDS_P2;PMS_P1;PMS_P2;Temp;Humidity;BMP_temperature;BMP_pressure;BME280_temperature;BME280_humidity;BME280_pressure;Samples;Min_cycle;Max_cycle;Signal;HPM_P1;HPM_P2
2022/05/29 07:58:51;;;;;;;8.65;3.20;;;;;;;12.05;77.45;101483.72;5335049;27;1197550;-80
2022/05/29 08:01:22;;;;;;;8.80;3.03;;;;;;;11.95;77.35;101480.97;5358130;27;20486;-81
2022/05/29 08:03:53;;;;;;;4.38;3.45;;;;;;;12.11;79.71;101485.34;5365844;27;20067;-81
2022/05/29 08:06:26;;;;;;;7.25;3.00;;;;;;;12.02;76.32;101475.94;5362887;27;20527;-82
2022/05/29 08:08:57;;;;;;;6.32;2.90;;;;;;;12.16;78.12;101479.75;5351813;27;20074;-82
2022/05/29 08:11:29;;;;;;;6.53;2.90;;;;;;;12.20;75.99;101471.69;5365546;27;20035;-81
2022/05/29 08:14:01;;;;;;;7.18;3.25;;;;;;;12.16;76.08;101476.97;5362823;27;20026;-81
2022/05/29 08:16:36;;;;;;;7.13;2.75;;;;;;;12.24;76.00;101478.34;5362857;27;20029;-80
2022/05/29 08:19:08;;;;;;;6.28;2.80;;;;;;;12.33;73.81;101476.63;5352318;27;20019;-81
2022/05/29 08:21:41;;;;;;;10.90;3.03;;;;;;;12.45;73.49;101473.53;5364385;27;20069;-83
2022/05/29 08:32:43;;;;;;;8.88;3.40;;;;;;;12.89;71.86;101464.31;5350934;27;20457;-83
2022/05/29 08:35:14;;;;;;;8.95;3.40;;;;;;;12.83;70.36;101455.19;5350235;27;20118;-81
2022/05/29 08:37:46;;;;;;;6.55;2.40;;;;;;;13.04;69.74;101455.00;5354673;27;20027;-83
2022/05/29 08:40:20;;;;;;;7.18;2.45;;;;;;;13.26;69.23;101448.94;5364176;27;20033;-83
2022/05/29 08:42:51;;;;;;;7.85;3.03;;;;;;;13.52;67.31;101451.50;5358501;27;20023;-80
2022/05/29 08:45:25;;;;;;;6.50;3.15;;;;;;;13.53;65.37;101454.00;5350315;27;20029;-81
2022/05/29 08:47:58;;;;;;;7.30;2.38;;;;;;;13.53;67.81;101453.19;5356249;27;20025;-81
2022/05/29 08:50:47;;;;;;;8.00;2.15;;;;;;;13.54;68.56;101452.06;5358379;27;20034;-81
2022/05/29 08:53:44;;;;;;;3.72;2.20;;;;;;;13.27;67.48;101464.59;5349713;27;20038;-83
2022/05/29 08:56:25;;;;;;;3.80;2.20;;;;;;;13.05;66.93;101453.88;5353912;27;20077;-82
2022/05/29 08:59:12;;;;;;;15.45;12.25;;;;;;;13.17;68.14;101445.16;5346590;27;20504;-79
2022/05/29 09:01:55;;;;;;;7.88;3.00;;;;;;;13.25;69.85;101450.09;5362141;27;20099;-79
2022/05/29 09:04:45;;;;;;;6.57;3.10;;;;;;;13.59;68.15;101441.66;5360233;27;20023;-79
2022/05/29 09:07:18;;;;;;;4.80;2.22;;;;;;;13.73;65.21;101447.38;5358032;27;20023;-80
2022/05/29 09:10:00;;;;;;;7.70;2.33;;;;;;;13.62;65.40;101440.25;5336201;27;20059;-79
2022/05/29 09:12:38;;;;;;;7.30;2.83;;;;;;;13.58;65.00;101436.41;5344048;27;20015;-80
2022/05/29 09:15:23;;;;;;;5.38;2.50;;;;;;;13.57;69.56;101437.53;5333233;27;20051;-83
2022/05/29 09:18:00;;;;;;;5.05;2.75;;;;;;;13.37;70.61;101436.63;5342288;27;20026;-82
2022/05/29 09:20:39;;;;;;;5.63;2.53;;;;;;;13.45;73.05;101437.94;5333309;27;20031;-82
2022/05/29 09:23:19;;;;;;;6.45;2.72;;;;;;;13.51;71.65;101427.56;5351927;27;20023;-83
2022/05/29 09:25:51;;;;;;;8.32;2.50;;;;;;;13.63;70.36;101423.25;5335749;27;20038;-83
2022/05/29 09:28:33;;;;;;;7.45;3.08;;;;;;;13.87;72.41;101426.00;5330421;27;20027;-78
2022/05/29 09:31:17;;;;;;;5.20;2.17;;;;;;;13.62;66.84;101423.53;5338944;27;20374;-79
2022/05/29 09:33:52;;;;;;;4.05;1.83;;;;;;;13.61;68.06;101416.31;5349244;27;20027;-81
2022/05/29 09:36:30;;;;;;;8.57;2.28;;;;;;;13.47;68.72;101419.81;5337963;27;20027;-82
2022/05/29 09:39:08;;;;;;;4.85;2.08;;;;;;;13.57;68.35;101423.59;5347781;27;20376;-83
2022/05/29 09:41:45;;;;;;;4.75;2.25;;;;;;;13.34;68.26;101417.69;5349811;27;20046;-81
2022/05/29 09:44:19;;;;;;;5.00;2.50;;;;;;;13.25;68.11;101422.22;5345361;27;20034;-82
2022/05/29 09:46:52;;;;;;;7.17;2.93;;;;;;;13.21;68.15;101423.94;5365388;27;20022;-81
2022/05/29 09:49:41;;;;;;;5.60;1.95;;;;;;;13.04;65.96;101418.81;5344564;27;20019;-81
2022/05/29 09:52:19;;;;;;;4.40;2.10;;;;;;;13.31;66.91;101409.94;5336927;27;20024;-83
2022/05/29 09:54:54;;;;;;;10.35;7.32;;;;;;;13.46;66.21;101404.19;5335202;27;20019;-81
2022/05/29 09:57:49;;;;;;;4.53;2.60;;;;;;;13.73;65.92;101402.78;5348158;27;20043;-80
2022/05/29 10:00:26;;;;;;;16.40;12.50;;;;;;;14.00;66.23;101396.56;5326853;27;20035;-83
2022/05/29 10:02:59;;;;;;;6.05;2.40;;;;;;;13.98;63.34;101393.25;5338587;27;20024;-83
2022/05/29 10:05:34;;;;;;;5.03;2.25;;;;;;;14.07;64.72;101397.03;5350118;27;20069;-80
2022/05/29 10:08:19;;;;;;;7.75;2.42;;;;;;;13.97;62.56;101394.38;5350611;27;20446;-84
2022/05/29 10:10:50;;;;;;;5.95;2.50;;;;;;;14.08;62.66;101389.50;5330481;27;20023;-83
2022/05/29 10:13:37;;;;;;;7.85;2.67;;;;;;;13.99;61.94;101399.69;5343716;27;20221;-82
2022/05/29 10:16:11;;;;;;;5.43;2.50;;;;;;;13.98;62.30;101386.84;5337687;27;20052;-82
2022/05/29 10:18:43;;;;;;;7.28;2.58;;;;;;;14.02;62.79;101387.91;5348996;27;20386;-83
2022/05/29 10:21:21;;;;;;;3.60;1.88;;;;;;;14.01;63.42;101400.19;5347159;27;20042;-82
2022/05/29 10:23:58;;;;;;;9.43;3.92;;;;;;;13.58;71.37;101403.78;5350421;27;20027;-83
2022/05/29 10:26:33;;;;;;;5.15;2.92;;;;;;;13.35;75.04;101407.41;5351896;27;20020;-82
2022/05/29 10:29:18;;;;;;;2.80;1.27;;;;;;;13.13;66.70;101400.34;5360447;27;20027;-85
2022/05/29 10:31:50;;;;;;;6.15;1.65;;;;;;;13.03;70.11;101394.84;5339043;27;20062;-80
2022/05/29 10:34:32;;;;;;;3.97;1.30;;;;;;;13.12;71.50;101392.28;5329626;27;20478;-79
2022/05/29 10:37:35;;;;;;;2.30;1.70;;;;;;;13.32;73.46;101391.25;5330411;27;20107;-78
2022/05/29 10:40:19;;;;;;;3.67;1.70;;;;;;;13.23;72.65;101385.47;5337510;27;20080;-80
2022/05/29 10:42:53;;;;;;;6.07;1.70;;;;;;;13.18;72.33;101385.53;5346937;27;20082;-79
2022/05/29 10:45:28;;;;;;;4.45;1.70;;;;;;;13.05;71.91;101387.88;5339980;27;20149;-79
2022/05/29 10:48:23;;;;;;;3.17;2.13;;;;;;;13.20;75.26;101400.00;5340441;27;20023;-78
2022/05/29 10:51:08;;;;;;;7.35;3.17;;;;;;;13.12;76.81;101397.84;5331279;27;20487;-77
2022/05/29 10:54:02;;;;;;;7.80;3.60;;;;;;;12.96;78.23;101408.28;5348037;27;20023;-78
2022/05/29 10:57:03;;;;;;;4.45;2.38;;;;;;;12.98;77.55;101408.81;5346793;27;20034;-81
2022/05/29 10:59:53;;;;;;;5.65;2.67;;;;;;;13.05;79.52;101409.31;5348531;27;20101;-81
2022/05/29 11:05:53;;;;;;;9.48;3.25;;;;;;;13.17;78.51;101397.81;5334883;27;20042;-79
2022/05/29 11:08:35;;;;;;;6.47;2.50;;;;;;;13.16;77.79;101398.91;5336671;27;20089;-80
2022/05/29 11:11:25;;;;;;;4.70;2.35;;;;;;;13.24;78.88;101392.69;5347266;27;20019;-81
2022/05/29 11:14:22;;;;;;;4.93;2.10;;;;;;;13.29;76.20;101387.09;5349146;27;20038;-84
2022/05/29 11:17:11;;;;;;;7.35;2.10;;;;;;;13.47;77.32;101386.38;5351732;27;20077;-83
2022/05/29 11:19:51;;;;;;;6.25;2.20;;;;;;;13.39;72.97;101387.00;5349097;27;20034;-75
2022/05/29 11:22:32;;;;;;;6.30;2.30;;;;;;;13.56;75.87;101388.50;5336358;27;20024;-74
2022/05/29 11:25:29;;;;;;;3.28;2.10;;;;;;;13.65;76.88;101390.34;5337583;27;20117;-74
2022/05/29 11:28:22;;;;;;;5.70;2.30;;;;;;;13.76;79.63;101385.47;5346876;27;20109;-75
2022/05/29 11:31:09;;;;;;;4.18;2.50;;;;;;;13.61;79.52;101391.22;5344349;27;20027;-74
2022/05/29 11:33:50;;;;;;;7.03;2.88;;;;;;;13.47;78.33;101391.94;5345892;27;20011;-75
2022/05/29 11:36:51;;;;;;;4.18;2.00;;;;;;;13.44;76.55;101388.91;5343964;27;20027;-75
2022/05/29 11:39:32;;;;;;;3.33;2.00;;;;;;;13.23;77.84;101397.44;5336334;27;20011;-82
2022/05/29 11:42:25;;;;;;;6.68;5.00;;;;;;;13.21;76.96;101384.94;5336241;27;20031;-83
2022/05/29 11:45:04;;;;;;;4.53;1.80;;;;;;;13.23;79.51;101391.88;5337495;27;20026;-79
2022/05/29 11:53:35;;;;;;;5.38;2.35;;;;;;;13.11;75.63;101385.03;5330212;27;20031;-77
2022/05/29 11:56:15;;;;;;;3.28;2.10;;;;;;;13.19;78.02;101385.25;5341636;28;20026;-78
2022/05/29 11:58:53;;;;;;;2.60;1.65;;;;;;;13.25;77.84;101386.84;5339138;27;20086;-83
2022/05/29 12:01:32;;;;;;;3.25;1.45;;;;;;;13.12;77.48;101378.38;5338289;28;20486;-81
2022/05/29 12:04:14;;;;;;;4.05;1.90;;;;;;;13.09;77.60;101384.50;5336698;28;20023;-81
2022/05/29 12:06:54;;;;;;;3.55;1.60;;;;;;;13.22;78.04;101378.25;5345381;28;20114;-82
2022/05/29 12:09:35;;;;;;;5.22;1.98;;;;;;;13.19;78.84;101376.91;5331435;28;20021;-81
2022/05/29 12:12:14;;;;;;;3.47;1.27;;;;;;;13.27;75.32;101378.25;5346415;28;20355;-81
2022/05/29 12:14:56;;;;;;;1.90;1.23;;;;;;;13.41;75.17;101368.03;5341977;28;20020;-82
2022/05/29 12:17:36;;;;;;;3.03;0.90;;;;;;;13.54;74.76;101366.50;5325944;28;20042;-82
2022/05/29 12:20:41;;;;;;;2.85;1.10;;;;;;;13.79;75.68;101361.72;5337010;27;20073;-81
2022/05/29 12:23:27;;;;;;;2.30;1.10;;;;;;;13.72;74.60;101359.31;5329853;27;20110;-84
2022/05/29 12:26:03;;;;;;;2.60;1.20;;;;;;;13.52;73.65;101363.16;5340518;27;20031;-82
2022/05/29 12:28:47;;;;;;;3.70;1.40;;;;;;;13.47;75.00;101360.44;5325866;28;20039;-83
2022/05/29 12:31:31;;;;;;;2.42;0.95;;;;;;;13.37;74.29;101354.97;5333223;28;20115;-83
2022/05/29 12:34:05;;;;;;;3.88;1.30;;;;;;;13.46;74.95;101354.03;5347271;28;20027;-83
2022/05/29 12:36:58;;;;;;;3.30;1.23;;;;;;;13.55;75.95;101345.03;5346696;27;20030;-82
2022/05/29 12:39:51;;;;;;;4.50;1.35;;;;;;;13.59;75.22;101355.28;5335517;28;20068;-83
2022/05/29 12:43:01;;;;;;;3.47;1.50;;;;;;;13.75;77.02;101357.88;5355894;28;20015;-87
2022/05/29 12:45:51;;;;;;;1.50;1.20;;;;;;;13.64;73.60;101352.44;5346350;27;20053;-83
2022/05/29 12:48:53;;;;;;;1.85;1.10;;;;;;;13.60;74.54;101362.53;5345729;27;20027;-83
2022/05/29 12:51:42;;;;;;;2.30;1.05;;;;;;;13.64;72.30;101362.75;5335005;27;20027;-81
2022/05/29 12:54:34;;;;;;;2.30;1.00;;;;;;;13.51;71.70;101360.69;5350307;27;20035;-82
2022/05/29 12:57:43;;;;;;;1.65;1.00;;;;;;;13.79;71.98;101365.34;5349151;27;20141;-80
2022/05/29 13:00:17;;;;;;;1.88;0.98;;;;;;;13.47;70.07;101369.66;5350154;27;20076;-79
2022/05/29 13:03:19;;;;;;;1.90;1.08;;;;;;;13.65;72.20;101367.19;5348891;27;20042;-79
2022/05/29 13:06:19;;;;;;;1.42;1.10;;;;;;;13.60;71.04;101364.47;5337411;27;20047;-78
2022/05/29 13:08:59;;;;;;;1.42;0.70;;;;;;;13.66;70.69;101363.28;5313282;27;20050;-83
2022/05/29 13:11:36;;;;;;;0.82;0.57;;;;;;;13.72;69.13;101350.94;5350311;27;20507;-79
2022/05/29 13:14:08;;;;;;;2.42;0.73;;;;;;;13.70;71.00;101354.03;5337382;27;20028;-80
2022/05/29 13:16:45;;;;;;;1.83;0.90;;;;;;;13.61;70.92;101352.22;5344887;27;20070;-80
2022/05/29 13:19:17;;;;;;;5.90;3.20;;;;;;;13.53;70.20;101359.28;5332467;27;20023;-79
2022/05/29 13:22:08;;;;;;;3.63;1.40;;;;;;;13.65;71.47;101347.69;5344573;27;20102;-80
2022/05/29 13:24:44;;;;;;;3.05;1.20;;;;;;;13.62;73.33;101346.31;5333404;27;20055;-80
2022/05/29 13:27:18;;;;;;;4.10;1.40;;;;;;;13.39;72.87;101349.94;5333796;27;20046;-79
2022/05/29 13:29:56;;;;;;;4.20;1.60;;;;;;;13.55;73.04;101348.66;5338724;27;20076;-80
2022/05/29 13:32:30;;;;;;;3.72;1.85;;;;;;;13.39;73.00;101359.13;5325299;28;20027;-79
2022/05/29 13:35:04;;;;;;;2.47;1.23;;;;;;;13.20;71.15;101359.03;5336895;27;20023;-79
2022/05/29 13:37:40;;;;;;;3.78;1.40;;;;;;;13.21;74.60;101357.09;5343767;27;20043;-80
2022/05/29 13:40:20;;;;;;;2.55;1.35;;;;;;;13.16;75.88;101368.28;5336061;27;20028;-80
2022/05/29 13:43:12;;;;;;;5.15;1.45;;;;;;;12.97;74.88;101362.63;5346191;27;20041;-78
2022/05/29 13:45:44;;;;;;;3.83;1.90;;;;;;;13.00;76.01;101360.09;5347902;27;20084;-77
2022/05/29 13:48:17;;;;;;;4.45;1.85;;;;;;;12.97;76.54;101357.88;5348591;27;20035;-79
2022/05/29 13:51:18;;;;;;;4.30;1.42;;;;;;;13.16;77.55;101360.75;5346519;27;20053;-77
2022/05/29 13:54:13;;;;;;;4.10;2.20;;;;;;;13.17;78.09;101356.84;5347160;27;20470;-77
2022/05/29 13:56:59;;;;;;;4.25;1.55;;;;;;;13.11;77.40;101346.06;5344274;27;20081;-76
2022/05/29 14:05:48;;;;;;;4.18;2.20;;;;;;;13.32;76.42;101346.69;5333642;27;20428;-77
2022/05/29 14:08:19;;;;;;;5.70;1.75;;;;;;;13.16;73.78;101343.22;5346259;27;20024;-76
2022/05/29 14:11:09;;;;;;;7.07;2.90;;;;;;;13.31;74.18;101331.94;5346754;27;20027;-77
2022/05/29 14:13:47;;;;;;;5.55;1.73;;;;;;;13.37;73.84;101327.13;5346552;27;20027;-78
2022/05/29 14:16:24;;;;;;;4.50;1.50;;;;;;;13.34;72.32;101328.56;5340778;27;20015;-77
2022/05/29 14:18:58;;;;;;;4.07;1.77;;;;;;;13.46;71.62;101328.97;5347620;27;20071;-78
2022/05/29 14:21:45;;;;;;;4.80;1.88;;;;;;;13.77;74.36;101325.78;5347447;27;20034;-77
2022/05/29 14:24:55;;;;;;;14.98;8.50;;;;;;;13.92;72.70;101322.78;5337167;27;20027;-77
2022/05/29 14:28:08;;;;;;;5.35;1.90;;;;;;;14.11;70.46;101313.59;5332529;27;20027;-78
2022/05/29 14:30:45;;;;;;;7.63;2.40;;;;;;;14.02;69.81;101321.00;5347727;27;20055;-77
2022/05/29 14:33:28;;;;;;;4.28;1.70;;;;;;;13.97;69.86;101313.53;5347338;27;20372;-76
2022/05/29 14:36:00;;;;;;;4.75;2.08;;;;;;;14.09;70.31;101310.28;5339613;27;20063;-77
2022/05/29 14:38:43;;;;;;;6.15;2.20;;;;;;;14.06;69.56;101299.72;5347632;27;20054;-77
2022/05/29 14:41:22;;;;;;;7.40;1.92;;;;;;;14.14;70.22;101307.41;5330450;27;20111;-78
2022/05/29 14:43:53;;;;;;;8.18;2.30;;;;;;;14.19;69.58;101298.97;5348056;27;20033;-77
2022/05/29 14:46:32;;;;;;;7.43;2.60;;;;;;;14.24;69.42;101298.03;5336442;27;20107;-78
2022/05/29 14:49:12;;;;;;;6.03;3.05;;;;;;;14.27;70.39;101303.88;5337960;27;20407;-78
2022/05/29 14:52:06;;;;;;;6.07;1.95;;;;;;;14.33;70.39;101297.06;5347309;27;20047;-76
2022/05/29 14:54:46;;;;;;;7.20;2.17;;;;;;;14.39;69.36;101289.41;5346338;27;20039;-77
2022/05/29 14:57:29;;;;;;;6.80;2.13;;;;;;;14.33;69.25;101294.25;5330141;27;20023;-78
2022/05/29 15:00:03;;;;;;;4.75;1.80;;;;;;;14.45;69.91;101290.19;5347077;27;20027;-78
2022/05/29 15:02:37;;;;;;;7.15;2.50;;;;;;;14.57;69.94;101293.34;5336727;27;20437;-77
2022/05/29 15:05:17;;;;;;;6.20;2.58;;;;;;;14.44;68.51;101283.75;5333860;27;20023;-77
2022/05/29 15:10:56;;;;;;;4.05;2.08;;;;;;;14.45;68.07;101284.59;5342620;27;20039;-77
2022/05/29 15:14:00;;;;;;;4.22;1.95;;;;;;;14.22;69.29;101287.19;5347409;27;20019;-78
2022/05/29 15:16:48;;;;;;;7.00;2.55;;;;;;;14.22;74.23;101289.16;5333472;27;20027;-77
2022/05/29 15:25:22;;;;;;;5.32;2.05;;;;;;;14.22;68.63;101280.81;5346335;27;20077;-77
2022/05/29 15:27:58;;;;;;;2.83;1.60;;;;;;;14.20;65.57;101275.50;5347142;27;20435;-78
2022/05/29 15:30:29;;;;;;;;;;;;;;;14.45;66.44;101274.25;5346370;27;20355;-76
2022/05/29 15:33:08;;;;;;;4.67;1.57;;;;;;;14.36;66.97;101276.09;5346699;27;19926;-78
2022/05/29 15:35:57;;;;;;;2.97;1.23;;;;;;;14.38;66.66;101273.00;5346866;27;20268;-78
2022/05/29 15:38:36;;;;;;;5.03;1.67;;;;;;;14.44;66.38;101271.78;5341561;27;20023;-77
2022/05/29 15:41:52;;;;;;;6.47;1.70;;;;;;;14.50;65.13;101270.56;5330754;27;20027;-78
2022/05/29 15:44:57;;;;;;;2.55;1.80;;;;;;;14.49;65.03;101271.69;5238634;28;20021;-79
2022/05/29 15:47:47;;;;;;;4.82;2.45;;;;;;;14.34;63.09;101273.63;5239086;28;20029;-77
2022/05/29 15:50:24;;;;;;;4.00;1.55;;;;;;;14.35;64.00;101266.88;5340204;27;20035;-77
2022/05/29 15:53:05;;;;;;;3.63;1.40;;;;;;;14.20;63.94;101271.91;5330290;27;20044;-78
2022/05/29 15:55:54;;;;;;;5.50;1.60;;;;;;;14.26;64.35;101277.06;5333551;28;20023;-78
2022/05/29 15:58:44;;;;;;;5.82;1.65;;;;;;;14.05;62.88;101270.19;5339695;28;20208;-76
2022/05/29 16:01:18;;;;;;;3.30;1.20;;;;;;;13.91;62.52;101264.56;5328896;28;20107;-77
2022/05/29 16:03:49;;;;;;;6.50;1.70;;;;;;;13.92;60.51;101263.41;5345238;28;20067;-78
2022/05/29 16:06:40;;;;;;;3.53;1.25;;;;;;;13.98;61.74;101264.97;5337028;28;20058;-77
2022/05/29 16:09:14;;;;;;;2.97;1.10;;;;;;;13.91;60.51;101259.78;5346087;28;20106;-77
2022/05/29 16:11:53;;;;;;;2.85;1.40;;;;;;;13.94;60.44;101255.56;5341474;28;20076;-76
2022/05/29 16:14:38;;;;;;;2.63;1.30;;;;;;;14.18;59.78;101251.84;5331729;28;20069;-77
2022/05/29 16:17:29;;;;;;;3.17;1.63;;;;;;;14.29;60.24;101251.38;5333651;28;20072;-77
2022/05/29 16:20:39;;;;;;;4.43;1.50;;;;;;;14.55;59.81;101253.75;5338226;27;20054;-77
2022/05/29 16:23:21;;;;;;;2.55;1.40;;;;;;;14.67;57.93;101248.50;5287394;27;20492;-77
2022/05/29 16:26:04;;;;;;;2.80;1.48;;;;;;;14.63;58.68;101249.44;5350194;27;20023;-78
2022/05/29 16:29:01;;;;;;;4.22;1.70;;;;;;;14.53;59.20;101253.22;5337427;27;20471;-77
2022/05/29 16:31:41;;;;;;;5.10;1.70;;;;;;;14.48;58.41;101250.50;5335379;27;20105;-77
2022/05/29 16:34:22;;;;;;;5.00;1.55;;;;;;;14.46;58.35;101248.00;5334833;27;20022;-77
2022/05/29 16:49:02;;;;;;;5.65;1.73;;;;;;;14.38;57.66;101245.09;5333140;27;20035;-77
2022/05/29 16:51:55;;;;;;;4.57;1.48;;;;;;;14.35;57.69;101243.75;5336032;27;20611;-78
2022/05/29 16:54:31;;;;;;;3.83;1.23;;;;;;;14.25;56.35;101243.94;5349221;27;20112;-78
2022/05/29 16:57:41;;;;;;;3.67;1.40;;;;;;;14.31;56.31;101246.31;5347470;27;20043;-78
2022/05/29 17:00:36;;;;;;;2.40;1.20;;;;;;;14.19;54.85;101247.91;5319088;27;20035;-78
2022/05/29 17:03:43;;;;;;;2.00;1.20;;;;;;;14.15;56.51;101253.28;5320023;27;20035;-76
2022/05/29 17:06:42;;;;;;;3.30;1.30;;;;;;;14.11;56.83;101247.50;5342669;27;20032;-84
2022/05/29 17:09:29;;;;;;;4.32;0.90;;;;;;;14.03;56.01;101250.13;5348760;27;20512;-79
2022/05/29 17:12:01;;;;;;;;;;;;;;;14.25;55.85;101250.31;5345606;27;20023;-81
2022/05/29 17:14:39;;;;;;;1.95;1.23;;;;;;;14.14;57.87;101258.03;5334416;27;19998;-81
2022/05/29 17:17:16;;;;;;;6.53;1.42;;;;;;;14.05;56.73;101256.25;5350294;27;20433;-81
2022/05/29 17:19:59;;;;;;;3.30;1.05;;;;;;;14.08;56.33;101261.19;5340083;27;20027;-81
2022/05/29 17:22:47;;;;;;;3.05;1.40;;;;;;;14.00;56.13;101264.69;5338103;27;20058;-80
2022/05/29 17:25:34;;;;;;;7.07;2.83;;;;;;;14.06;56.92;101266.25;5335369;27;20023;-81
2022/05/29 17:28:44;;;;;;;2.22;1.10;;;;;;;13.95;56.69;101268.38;5332635;27;20024;-80
